createdAt,value
2023-09-08T00:00:36.723Z,99.90
2023-09-08T00:03:04.794Z,99.90
2023-09-08T00:05:33.048Z,99.90
2023-09-08T00:08:01.216Z,99.90
2023-09-08T00:10:30.622Z,99.90
2023-09-08T00:12:58.446Z,99.90
2023-09-08T00:15:26.492Z,99.90
2023-09-08T00:17:54.566Z,99.90
2023-09-08T00:20:22.522Z,99.90
2023-09-08T00:22:51.176Z,99.90
2023-09-08T00:25:19.181Z,99.90
2023-09-08T00:27:48.393Z,99.90
2023-09-08T00:30:16.586Z,99.90
2023-09-08T00:32:44.834Z,99.90
2023-09-08T00:35:14.688Z,99.90
2023-09-08T00:37:43.434Z,99.90
2023-09-08T00:40:12.559Z,99.90
2023-09-08T00:42:40.489Z,99.90
2023-09-08T00:45:10.892Z,99.90
2023-09-08T00:47:39.060Z,99.90
2023-09-08T00:50:09.417Z,99.90
2023-09-08T00:52:37.573Z,99.90
2023-09-08T00:55:06.352Z,99.90
2023-09-08T00:57:35.095Z,99.90
2023-09-08T01:00:05.213Z,99.90
2023-09-08T01:02:34.611Z,99.90
2023-09-08T01:05:03.647Z,99.90
2023-09-08T01:07:33.530Z,99.90
2023-09-08T01:10:05.246Z,99.90
2023-09-08T01:12:34.301Z,99.90
2023-09-08T01:15:02.352Z,99.90
2023-09-08T01:17:30.605Z,99.90
2023-09-08T01:20:04.449Z,99.90
2023-09-08T01:22:47.670Z,99.90
2023-09-08T01:25:23.614Z,99.90
2023-09-08T01:27:54.155Z,99.90
2023-09-08T01:30:24.037Z,99.90
2023-09-08T01:32:53.087Z,99.90
2023-09-08T01:35:21.847Z,99.90
2023-09-08T01:37:50.915Z,99.90
2023-09-08T01:40:21.133Z,99.90
2023-09-08T01:42:50.386Z,99.90
2023-09-08T01:45:18.674Z,99.90
2023-09-08T01:47:46.716Z,99.90
2023-09-08T01:50:15.691Z,99.90
2023-09-08T01:52:43.662Z,99.90
2023-09-08T01:55:13.377Z,99.90
2023-09-08T01:57:42.793Z,99.90
2023-09-08T02:00:12.101Z,99.90
2023-09-08T02:02:40.096Z,99.90
2023-09-08T02:05:09.169Z,99.90
2023-09-08T02:07:37.271Z,99.90
2023-09-08T02:10:05.682Z,99.90
2023-09-08T02:12:33.842Z,99.90
2023-09-08T02:15:03.491Z,99.90
2023-09-08T02:17:31.447Z,99.90
2023-09-08T02:19:59.418Z,99.90
2023-09-08T02:22:27.405Z,99.90
2023-09-08T02:24:57.758Z,99.90
2023-09-08T02:27:25.673Z,99.90
2023-09-08T02:29:54.083Z,99.90
2023-09-08T02:32:23.448Z,99.90
2023-09-08T02:34:51.454Z,99.90
2023-09-08T02:37:20.285Z,99.90
2023-09-08T02:39:48.501Z,99.90
2023-09-08T02:42:16.540Z,99.90
2023-09-08T02:44:45.693Z,99.90
2023-09-08T02:47:13.642Z,99.90
2023-09-08T02:49:44.536Z,99.90
2023-09-08T02:52:12.493Z,99.90
2023-09-08T02:54:40.733Z,99.90
2023-09-08T02:57:08.721Z,99.90
2023-09-08T02:59:36.682Z,99.90
2023-09-08T03:02:05.195Z,99.90
2023-09-08T03:04:33.438Z,99.90
2023-09-08T03:07:02.859Z,99.90
2023-09-08T03:09:30.800Z,99.90
2023-09-08T03:11:58.776Z,99.90
2023-09-08T03:14:26.784Z,99.90
2023-09-08T03:16:54.698Z,99.90
2023-09-08T03:19:22.858Z,99.90
2023-09-08T03:21:50.828Z,99.90
2023-09-08T03:24:20.452Z,99.90
2023-09-08T03:26:48.364Z,99.90
2023-09-08T03:29:16.401Z,99.90
2023-09-08T03:31:44.651Z,99.90
2023-09-08T03:34:12.919Z,99.90
2023-09-08T03:36:41.196Z,99.90
2023-09-08T03:39:10.435Z,99.90
2023-09-08T03:41:40.776Z,99.90
2023-09-08T03:44:08.705Z,99.90
2023-09-08T03:46:36.750Z,99.90
2023-09-08T03:49:04.738Z,99.90
2023-09-08T03:51:32.664Z,99.90
2023-09-08T03:54:01.040Z,99.90
2023-09-08T03:56:29.130Z,99.90
2023-09-08T03:58:58.423Z,99.90
2023-09-08T04:01:26.578Z,99.90
2023-09-08T04:03:54.565Z,99.90
2023-09-08T04:06:25.278Z,99.90
2023-09-08T04:08:53.451Z,99.90
2023-09-08T04:11:21.373Z,99.90
2023-09-08T04:13:49.414Z,99.90
2023-09-08T04:16:18.745Z,99.90
2023-09-08T04:18:47.328Z,99.90
2023-09-08T04:21:15.812Z,99.90
2023-09-08T04:23:43.814Z,99.90
2023-09-08T04:26:11.924Z,99.90
2023-09-08T04:28:39.870Z,99.90
2023-09-08T04:31:07.986Z,99.90
2023-09-08T04:33:37.783Z,99.90
2023-09-08T04:36:06.217Z,99.90
2023-09-08T04:38:34.098Z,99.90
2023-09-08T04:41:02.277Z,99.90
2023-09-08T04:43:30.339Z,99.90
2023-09-08T04:45:58.954Z,99.90
2023-09-08T04:48:28.558Z,99.90
2023-09-08T04:50:59.511Z,99.90
2023-09-08T04:53:27.511Z,99.90
2023-09-08T04:55:55.524Z,99.90
2023-09-08T04:58:23.592Z,99.90
2023-09-08T05:00:52.193Z,99.90
2023-09-08T05:03:20.315Z,99.90
2023-09-08T05:05:48.679Z,99.90
2023-09-08T05:08:18.025Z,99.90
2023-09-08T05:10:46.494Z,99.90
2023-09-08T05:13:29.039Z,99.90
2023-09-08T05:16:01.446Z,99.90
2023-09-08T05:18:29.624Z,99.90
2023-09-08T05:20:57.937Z,99.90
2023-09-08T05:23:27.255Z,99.90
2023-09-08T05:25:56.021Z,99.90
2023-09-08T05:28:23.962Z,99.90
2023-09-08T05:30:53.209Z,99.90
2023-09-08T05:33:21.272Z,99.90
2023-09-08T05:35:49.679Z,99.90
2023-09-08T05:38:17.820Z,99.90
2023-09-08T05:40:47.197Z,99.90
2023-09-08T05:43:15.243Z,99.90
2023-09-08T05:45:43.233Z,99.90
2023-09-08T05:48:11.316Z,99.90
2023-09-08T05:50:39.511Z,99.90
2023-09-08T05:53:07.489Z,99.90
2023-09-08T05:55:35.458Z,99.90
2023-09-08T05:58:04.926Z,99.90
2023-09-08T06:00:32.853Z,99.90
2023-09-08T06:03:02.067Z,99.90
2023-09-08T06:05:30.602Z,99.90
2023-09-08T06:08:07.307Z,99.90
2023-09-08T06:10:35.909Z,99.90
2023-09-08T06:13:05.504Z,99.90
2023-09-08T06:15:33.558Z,99.90
2023-09-08T06:18:01.735Z,99.90
2023-09-08T06:20:29.864Z,99.90
2023-09-08T06:22:58.234Z,99.90
2023-09-08T06:25:26.199Z,99.90
2023-09-08T06:27:54.348Z,99.90
2023-09-08T06:30:23.757Z,99.90
2023-09-08T06:32:54.070Z,99.90
2023-09-08T06:35:22.161Z,99.90
2023-09-08T06:37:50.606Z,99.90
2023-09-08T06:40:18.706Z,99.90
2023-09-08T06:42:46.695Z,99.90
2023-09-08T06:45:16.050Z,99.90
2023-09-08T06:47:45.661Z,99.90
2023-09-08T06:50:13.740Z,99.90
2023-09-08T06:52:43.010Z,99.90
2023-09-08T06:55:11.054Z,99.90
2023-09-08T06:57:40.089Z,99.90
2023-09-08T07:00:09.514Z,99.90
2023-09-08T07:02:38.568Z,99.90
2023-09-08T07:05:09.568Z,99.90
2023-09-08T07:07:38.160Z,99.90
2023-09-08T07:10:08.598Z,99.90
2023-09-08T07:12:36.807Z,99.90
2023-09-08T07:15:05.547Z,99.90
2023-09-08T07:17:33.558Z,99.90
2023-09-08T07:20:01.544Z,99.90
2023-09-08T07:22:30.938Z,99.90
2023-09-08T07:24:58.891Z,99.90
2023-09-08T07:27:26.906Z,99.90
2023-09-08T07:29:55.186Z,99.90
2023-09-08T07:32:23.429Z,99.90
2023-09-08T07:34:56.402Z,99.90
2023-09-08T07:37:25.691Z,99.90
2023-09-08T07:39:54.994Z,99.90
2023-09-08T07:42:24.593Z,99.90
2023-09-08T07:44:52.582Z,99.90
2023-09-08T07:47:20.804Z,99.90
2023-09-08T07:49:49.877Z,99.90
2023-09-08T07:52:17.850Z,99.90
2023-09-08T07:54:46.097Z,99.90
2023-09-08T07:57:15.530Z,99.90
2023-09-08T07:59:43.524Z,99.90
2023-09-08T08:02:12.150Z,99.90
2023-09-08T08:04:40.225Z,99.90
2023-09-08T08:07:08.371Z,99.90
2023-09-08T08:09:36.338Z,99.90
2023-09-08T08:12:04.411Z,99.90
2023-09-08T08:14:33.822Z,99.90
2023-09-08T08:17:01.769Z,99.90
2023-09-08T08:19:29.812Z,99.90
2023-09-08T08:21:58.335Z,99.90
2023-09-08T08:24:26.378Z,99.90
2023-09-08T08:26:54.410Z,99.90
2023-09-08T08:29:22.376Z,99.90
2023-09-08T08:31:51.897Z,99.90
2023-09-08T08:34:19.826Z,99.90
2023-09-08T08:36:47.920Z,99.90
2023-09-08T08:39:16.025Z,99.90
2023-09-08T08:41:44.357Z,99.90
2023-09-08T08:44:12.425Z,99.90
2023-09-08T08:46:41.206Z,99.90
2023-09-08T08:49:13.258Z,99.90
2023-09-08T08:51:44.492Z,99.90
2023-09-08T08:54:14.591Z,99.90
2023-09-08T08:56:44.193Z,99.90
2023-09-08T08:59:12.730Z,99.90
2023-09-08T09:01:43.673Z,99.90
2023-09-08T09:04:14.288Z,99.90
2023-09-08T09:06:42.294Z,99.90
2023-09-08T09:09:11.976Z,99.90
2023-09-08T09:11:39.929Z,99.90
2023-09-08T09:14:08.271Z,99.90
2023-09-08T09:16:42.600Z,99.90
2023-09-08T09:19:12.554Z,99.90
2023-09-08T09:21:47.222Z,99.90
2023-09-08T09:24:20.862Z,99.90
2023-09-08T09:26:53.708Z,99.90
2023-09-08T09:29:23.099Z,99.90
2023-09-08T09:31:54.700Z,99.90
2023-09-08T09:34:25.306Z,99.90
2023-09-08T09:36:54.054Z,99.90
2023-09-08T09:39:23.126Z,99.90
2023-09-08T09:41:54.970Z,99.90
2023-09-08T09:44:24.181Z,99.90
2023-09-08T09:46:55.521Z,99.90
2023-09-08T09:49:28.058Z,99.90
2023-09-08T09:51:56.784Z,99.90
2023-09-08T09:54:24.906Z,99.90
2023-09-08T09:56:54.010Z,99.90
2023-09-08T09:59:23.593Z,99.60
2023-09-08T10:01:52.028Z,99.90
2023-09-08T10:04:20.985Z,99.90
2023-09-08T10:06:52.765Z,99.40
2023-09-08T10:09:20.753Z,99.20
2023-09-08T10:11:50.956Z,98.80
2023-09-08T10:14:20.709Z,98.50
2023-09-08T10:16:53.505Z,98.20
2023-09-08T10:19:23.929Z,97.80
2023-09-08T10:21:56.754Z,97.10
2023-09-08T10:24:28.335Z,96.40
2023-09-08T10:27:00.760Z,96.50
2023-09-08T10:29:29.807Z,96.10
2023-09-08T10:31:59.269Z,96.10
2023-09-08T10:34:28.265Z,95.70
2023-09-08T10:36:58.105Z,95.60
2023-09-08T10:39:39.863Z,94.70
2023-09-08T10:42:25.733Z,95.30
2023-09-08T10:45:06.922Z,94.30
2023-09-08T10:47:41.667Z,93.50
2023-09-08T10:50:17.738Z,93.10
2023-09-08T10:52:48.203Z,92.80
2023-09-08T10:55:16.144Z,92.70
2023-09-08T10:57:47.503Z,92.10
2023-09-08T11:00:21.670Z,91.90
2023-09-08T11:02:51.426Z,91.80
2023-09-08T11:05:21.114Z,90.00
2023-09-08T11:07:53.629Z,87.30
2023-09-08T11:10:21.792Z,85.90
2023-09-08T11:12:52.106Z,84.50
2023-09-08T11:15:21.710Z,84.50
2023-09-08T11:17:52.052Z,85.50
2023-09-08T11:20:28.783Z,80.90
2023-09-08T11:22:58.313Z,84.70
2023-09-08T11:25:26.424Z,77.30
2023-09-08T11:27:54.620Z,75.10
2023-09-08T11:30:23.261Z,72.30
2023-09-08T11:32:52.249Z,68.20
2023-09-08T11:35:21.968Z,66.60
2023-09-08T11:37:54.195Z,65.00
2023-09-08T11:40:25.772Z,60.10
2023-09-08T11:42:55.937Z,57.50
2023-09-08T11:45:24.534Z,56.20
2023-09-08T11:47:54.880Z,55.80
2023-09-08T11:50:24.299Z,55.30
2023-09-08T11:52:53.653Z,55.80
2023-09-08T11:55:24.330Z,55.40
2023-09-08T11:57:58.275Z,54.80
2023-09-08T12:00:28.072Z,55.10
2023-09-08T12:02:56.453Z,55.20
2023-09-08T12:05:26.212Z,56.80
2023-09-08T12:07:57.294Z,57.30
2023-09-08T12:10:28.016Z,56.70
2023-09-08T12:13:01.204Z,57.20
2023-09-08T12:15:34.072Z,57.60
2023-09-08T12:18:02.765Z,58.00
2023-09-08T12:20:31.268Z,57.60
2023-09-08T12:23:01.167Z,57.60
2023-09-08T12:25:32.550Z,56.80
2023-09-08T12:28:01.121Z,55.70
2023-09-08T12:30:33.605Z,56.80
2023-09-08T12:33:03.469Z,57.00
2023-09-08T12:35:32.835Z,57.10
2023-09-08T12:38:02.260Z,57.50
2023-09-08T12:40:34.718Z,55.80
2023-09-08T12:43:04.968Z,56.80
2023-09-08T12:45:43.360Z,56.00
2023-09-08T12:48:11.527Z,56.40
2023-09-08T12:50:39.544Z,56.40
2023-09-08T12:53:07.600Z,55.10
2023-09-08T12:55:37.041Z,53.90
2023-09-08T12:58:05.249Z,54.00
2023-09-08T13:00:33.418Z,53.70
2023-09-08T13:03:03.068Z,52.20
2023-09-08T13:05:33.620Z,51.00
2023-09-08T13:08:02.962Z,48.80
2023-09-08T13:10:31.253Z,47.30
2023-09-08T13:13:00.847Z,45.40
2023-09-08T13:15:28.875Z,44.20
2023-09-08T13:17:57.666Z,43.20
2023-09-08T13:20:26.016Z,42.00
2023-09-08T13:22:54.140Z,41.80
2023-09-08T13:25:22.529Z,41.70
2023-09-08T13:27:50.553Z,41.10
2023-09-08T13:30:22.693Z,40.00
2023-09-08T13:32:50.756Z,40.60
2023-09-08T13:35:19.118Z,40.30
2023-09-08T13:37:47.253Z,41.30
2023-09-08T13:40:15.435Z,41.60
2023-09-08T13:42:44.024Z,41.00
2023-09-08T13:45:13.062Z,41.00
2023-09-08T13:47:42.891Z,40.70
2023-09-08T13:50:13.135Z,41.10
2023-09-08T13:52:43.733Z,40.50
2023-09-08T13:55:34.923Z,42.00
2023-09-08T13:58:02.092Z,41.50
2023-09-08T14:00:31.927Z,41.80
2023-09-08T14:03:06.508Z,41.40
2023-09-08T14:05:37.664Z,41.20
2023-09-08T14:08:16.948Z,41.30
2023-09-08T14:13:18.090Z,39.70
2023-09-08T14:15:46.225Z,39.30
2023-09-08T14:18:16.369Z,38.30
2023-09-08T14:20:44.924Z,37.40
2023-09-08T14:23:12.843Z,37.90
2023-09-08T14:25:40.798Z,39.00
2023-09-08T14:28:08.946Z,40.90
2023-09-08T14:30:37.055Z,42.70
2023-09-08T14:33:05.885Z,44.30
2023-09-08T14:35:35.278Z,46.00
2023-09-08T14:38:04.157Z,47.80
2023-09-08T14:40:32.837Z,48.60
2023-09-08T14:43:00.840Z,49.80
2023-09-08T14:45:29.074Z,51.20
2023-09-08T14:48:00.288Z,51.70
2023-09-08T14:50:29.539Z,52.30
2023-09-08T14:52:58.951Z,52.80
2023-09-08T14:55:27.119Z,53.10
2023-09-08T14:57:55.940Z,53.60
2023-09-08T15:00:24.145Z,53.80
2023-09-08T15:02:52.261Z,54.10
2023-09-08T15:05:20.318Z,54.90
2023-09-08T15:07:48.255Z,55.30
2023-09-08T15:10:17.840Z,55.60
2023-09-08T15:12:45.801Z,55.70
2023-09-08T15:15:13.732Z,55.90
2023-09-08T15:17:41.870Z,56.10
2023-09-08T15:20:10.769Z,56.40
2023-09-08T15:22:38.913Z,57.20
2023-09-08T15:25:08.247Z,57.50
2023-09-08T15:27:37.491Z,57.20
2023-09-08T15:30:06.978Z,57.00
2023-09-08T15:32:35.008Z,56.80
2023-09-08T15:35:04.133Z,56.80
2023-09-08T15:37:32.149Z,57.10
2023-09-08T15:40:00.368Z,57.20
2023-09-08T15:42:28.324Z,57.40
2023-09-08T15:44:58.052Z,58.00
2023-09-08T15:47:25.995Z,57.90
2023-09-08T15:49:53.915Z,57.70
2023-09-08T15:52:21.917Z,57.70
2023-09-08T15:54:50.093Z,57.90
2023-09-08T15:57:17.982Z,58.30
2023-09-08T15:59:46.566Z,58.60
2023-09-08T16:02:15.888Z,58.80
2023-09-08T16:04:44.192Z,58.70
2023-09-08T16:07:12.291Z,58.90
2023-09-08T16:09:40.431Z,58.90
2023-09-08T16:12:08.748Z,59.00
2023-09-08T16:14:36.838Z,59.20
2023-09-08T16:17:05.235Z,59.40
2023-09-08T16:19:34.700Z,59.50
2023-09-08T16:22:02.930Z,59.60
2023-09-08T16:24:30.950Z,59.90
2023-09-08T16:27:01.654Z,60.00
2023-09-08T16:29:30.098Z,60.20
2023-09-08T16:31:58.606Z,60.50
2023-09-08T16:34:27.053Z,60.70
2023-09-08T16:36:56.386Z,60.90
2023-09-08T16:39:24.688Z,61.10
2023-09-08T16:41:52.714Z,61.10
2023-09-08T16:44:20.672Z,61.30
2023-09-08T16:46:48.624Z,61.30
2023-09-08T16:49:18.114Z,61.40
2023-09-08T16:51:46.071Z,61.70
2023-09-08T16:54:15.509Z,61.60
2023-09-08T16:56:43.776Z,61.80
2023-09-08T16:59:11.727Z,62.00
2023-09-08T17:01:39.939Z,62.50
2023-09-08T17:04:11.032Z,62.70
2023-09-08T17:06:39.678Z,63.10
2023-09-08T17:09:09.377Z,63.60
2023-09-08T17:11:41.175Z,64.10
2023-09-08T17:14:09.734Z,64.60
2023-09-08T17:16:37.864Z,65.60
2023-09-08T17:19:07.302Z,64.90
2023-09-08T17:21:35.945Z,65.20
2023-09-08T17:24:04.459Z,65.60
2023-09-08T17:26:32.587Z,65.70
2023-09-08T17:29:04.236Z,66.60
2023-09-08T17:31:32.519Z,66.20
2023-09-08T17:34:00.749Z,66.20
2023-09-08T17:36:30.421Z,66.40
2023-09-08T17:38:58.516Z,66.40
2023-09-08T17:41:26.712Z,66.80
2023-09-08T17:43:54.654Z,67.30
2023-09-08T17:46:24.443Z,67.90
2023-09-08T17:48:52.657Z,68.10
2023-09-08T17:51:22.251Z,68.70
2023-09-08T17:53:50.227Z,69.20
2023-09-08T17:56:18.236Z,70.40
2023-09-08T17:58:46.149Z,71.70
2023-09-08T18:01:14.166Z,73.20
2023-09-08T18:03:44.194Z,75.10
2023-09-08T18:06:12.474Z,76.30
2023-09-08T18:08:41.105Z,77.30
2023-09-08T18:11:09.554Z,78.60
2023-09-08T18:13:37.962Z,80.10
2023-09-08T18:16:06.766Z,81.00
2023-09-08T18:18:35.428Z,82.20
2023-09-08T18:21:04.875Z,82.90
2023-09-08T18:23:32.904Z,83.90
2023-09-08T18:26:01.278Z,84.70
2023-09-08T18:28:29.312Z,85.50
2023-09-08T18:30:57.532Z,86.30
2023-09-08T18:33:26.381Z,87.20
2023-09-08T18:35:54.408Z,88.10
2023-09-08T18:38:24.138Z,88.80
2023-09-08T18:40:53.408Z,89.70
2023-09-08T18:43:21.597Z,90.00
2023-09-08T18:45:49.604Z,90.30
2023-09-08T18:48:17.753Z,90.30
2023-09-08T18:50:46.048Z,90.80
2023-09-08T18:53:14.067Z,90.40
2023-09-08T18:55:43.561Z,90.30
2023-09-08T18:58:11.571Z,90.80
2023-09-08T19:00:45.255Z,90.20
2023-09-08T19:03:13.505Z,90.30
2023-09-08T19:05:42.536Z,90.30
2023-09-08T19:08:10.863Z,90.50
2023-09-08T19:10:38.802Z,90.70
2023-09-08T19:13:08.260Z,90.70
2023-09-08T19:15:36.187Z,91.00
2023-09-08T19:18:04.948Z,91.10
2023-09-08T19:20:33.070Z,91.30
2023-09-08T19:23:01.159Z,91.40
2023-09-08T19:25:29.278Z,91.50
2023-09-08T19:27:57.925Z,91.70
2023-09-08T19:30:27.420Z,91.70
2023-09-08T19:32:55.448Z,91.90
2023-09-08T19:35:23.740Z,92.00
2023-09-08T19:37:52.049Z,92.20
2023-09-08T19:40:20.181Z,92.50
2023-09-08T19:42:48.057Z,92.70
2023-09-08T19:45:16.640Z,92.90
2023-09-08T19:47:46.016Z,93.00
2023-09-08T19:50:13.999Z,93.30
2023-09-08T19:52:42.251Z,93.80
2023-09-08T19:55:10.906Z,94.20
2023-09-08T19:57:44.112Z,94.40
2023-09-08T20:00:14.377Z,94.50
2023-09-08T20:02:46.093Z,94.80
2023-09-08T20:05:14.139Z,95.10
2023-09-08T20:07:42.212Z,95.60
2023-09-08T20:10:12.182Z,95.90
2023-09-08T20:12:42.514Z,96.30
2023-09-08T20:15:11.588Z,96.60
2023-09-08T20:17:40.679Z,97.00
2023-09-08T20:20:16.423Z,97.30
2023-09-08T20:22:44.452Z,97.80
2023-09-08T20:25:12.473Z,98.20
2023-09-08T20:27:40.693Z,98.40
2023-09-08T20:30:09.746Z,98.90
2023-09-08T20:32:37.783Z,99.20
2023-09-08T20:35:07.125Z,99.60
2023-09-08T20:37:36.753Z,99.90
2023-09-08T20:40:06.409Z,99.90
2023-09-08T20:42:34.491Z,99.90
2023-09-08T20:45:02.523Z,99.90
2023-09-08T20:47:30.551Z,99.90
2023-09-08T20:49:58.789Z,99.90
2023-09-08T20:52:26.845Z,99.90
2023-09-08T20:54:56.312Z,99.90
2023-09-08T20:57:26.093Z,99.90
2023-09-08T20:59:54.183Z,99.90
2023-09-08T21:02:22.145Z,99.90
2023-09-08T21:04:50.480Z,99.90
2023-09-08T21:07:18.559Z,99.90
2023-09-08T21:09:49.182Z,99.90
2023-09-08T21:12:18.670Z,99.90
2023-09-08T21:14:47.858Z,99.90
2023-09-08T21:17:15.875Z,99.90
2023-09-08T21:19:43.923Z,99.90
2023-09-08T21:22:12.523Z,99.90
2023-09-08T21:24:40.638Z,99.90
2023-09-08T21:27:08.629Z,99.90
2023-09-08T21:29:38.233Z,99.90
2023-09-08T21:32:06.789Z,99.90
2023-09-08T21:34:34.986Z,99.90
2023-09-08T21:37:03.052Z,99.90
2023-09-08T21:39:31.036Z,99.90
2023-09-08T21:42:00.888Z,99.90
2023-09-08T21:44:30.418Z,99.90
2023-09-08T21:47:00.193Z,99.90
2023-09-08T21:49:28.404Z,99.90
2023-09-08T21:51:56.823Z,99.90
2023-09-08T21:54:26.105Z,99.90
2023-09-08T21:56:54.295Z,99.90
2023-09-08T21:59:22.313Z,99.90
2023-09-08T22:01:50.695Z,99.90
2023-09-08T22:04:21.111Z,99.90
2023-09-08T22:06:49.936Z,99.90
2023-09-08T22:09:18.946Z,99.90
2023-09-08T22:11:48.107Z,99.90
2023-09-08T22:14:16.400Z,99.90
2023-09-08T22:16:44.400Z,99.90
2023-09-08T22:19:12.890Z,99.90
2023-09-08T22:21:45.241Z,99.90
2023-09-08T22:24:13.589Z,99.90
2023-09-08T22:26:41.703Z,99.90
2023-09-08T22:29:10.264Z,99.90
2023-09-08T22:31:38.529Z,99.90
2023-09-08T22:34:06.900Z,99.90
2023-09-08T22:36:35.050Z,99.90
2023-09-08T22:39:05.927Z,99.90
2023-09-08T22:41:34.259Z,99.90
2023-09-08T22:44:02.346Z,99.90
2023-09-08T22:46:30.526Z,99.90
2023-09-08T22:48:58.595Z,99.90
2023-09-08T22:51:26.538Z,99.90
2023-09-08T22:53:55.388Z,99.90
2023-09-08T22:56:24.689Z,99.90
2023-09-08T22:58:52.690Z,99.90
2023-09-08T23:01:21.202Z,99.90
2023-09-08T23:03:49.461Z,99.90
2023-09-08T23:06:17.468Z,99.90
2023-09-08T23:08:45.327Z,99.90
2023-09-08T23:11:13.285Z,99.90
2023-09-08T23:13:42.801Z,99.90
2023-09-08T23:16:13.951Z,99.90
2023-09-08T23:18:42.251Z,99.90
2023-09-08T23:21:12.313Z,99.90
2023-09-08T23:23:40.445Z,99.90
2023-09-08T23:26:08.483Z,99.90
2023-09-08T23:28:38.196Z,99.90
2023-09-08T23:31:07.934Z,99.90
2023-09-08T23:33:36.569Z,99.90
2023-09-08T23:36:05.277Z,99.90
2023-09-08T23:38:33.484Z,99.90
2023-09-08T23:41:01.525Z,99.90
2023-09-08T23:43:29.577Z,99.90
2023-09-08T23:45:57.647Z,99.90
2023-09-08T23:48:27.188Z,99.90
2023-09-08T23:50:58.359Z,99.90
2023-09-08T23:53:27.316Z,99.90
2023-09-08T23:55:56.209Z,99.90
2023-09-08T23:58:24.355Z,99.90
